Weather History for Wauseon Fulton County Airport, OH

Change the Weather History Date:

Tuesday, January 7, 2014

  Actual Average (KTOL) Record (KTOL)
Temperature  
Mean Temperature -6 °F 26 °F  
Max Temperature 1 °F 33 °F 66 °F (2008)
Min Temperature -13 °F 19 °F -14 °F (2014)
Degree Days  
Heating Degree Days 71 39  
Month to date heating degree days 273  
Since 1 July heating degree days 2598  
Cooling Degree Days 0 0  
Month to date cooling degree days 0  
Year to date cooling degree days 0  
Moisture  
Dew Point -16 °F    
Average Humidity 64    
Maximum Humidity 78    
Minimum Humidity 59    
Precipitation  
Precipitation 0.00 in 0.07 in 0.56 in (1998)
Month to date precipitation 0.52  
Year to date precipitation 0.52  
Snow  
Snow 0.00 in 0.30 in - ()
Month to date snowfall 2.4  
Since 1 July snowfall 11.9  
Snow Depth -    
Sea Level Pressure  
Sea Level Pressure 30.24 in    
Wind  
Wind Speed 17 mph (SW)    
Max Wind Speed 22 mph    
Max Gust Speed 29 mph    
Visibility 10 miles    
Events      
T = Trace of Precipitation, MM = Missing Value Source: NWS Daily Summary

Daily Weather History Graph

Daily Weather History Graph

Search for Another Location

Airport:

Trip Planner

Search our weather history database for the weather conditions in past years. The results will help you decide how hot, cold, wet, or windy it might be!

Date:

Astronomy

Jan. 07, 2014 Rise Set
Actual Time 8:03 AM EST 5:22 PM EST
Civil Twilight 7:32 AM EST 5:53 PM EST
Nautical Twilight 6:57 AM EST 6:28 PM EST
Astronomical Twilight 6:23 AM EST 7:01 PM EST
Moon 11:45 AM EST (1/7) No Moon Set
Length of Visible Light 10h 21m
Length of Day
9h 19m
Waxing Crescent, 45% of the Moon is Illuminated
Jan 7
Waxing Crescent
Jan 7
First Quarter
Jan 15
Full
Jan 24
Last Quarter
Jan 30
New

Hourly Weather History & Observations

Time (EST) Temp. Windchill Dew Point Humidity Pressure Visibility Wind Dir Wind Speed Gust Speed Precip Events Conditions
12:15 AM -13.0 °F -40.0 °F -23.8 °F 59% 30.15 in 8.0 mi WSW 21.9 mph - N/A   Clear
12:35 AM -13.0 °F -38.2 °F -23.8 °F 59% 30.15 in 8.0 mi WSW 18.4 mph 26.5 mph N/A   Clear
12:55 AM -13.0 °F -38.8 °F -23.8 °F 59% 30.15 in 9.0 mi WSW 19.6 mph - N/A   Clear
1:15 AM -13.0 °F -38.8 °F -23.8 °F 59% 30.15 in 9.0 mi WSW 19.6 mph - N/A   Clear
1:35 AM -13.0 °F -38.2 °F -23.8 °F 59% 30.16 in 10.0 mi WSW 18.4 mph - N/A   Clear
1:55 AM -13.0 °F -37.5 °F -23.8 °F 59% 30.16 in 10.0 mi WSW 17.3 mph 23.0 mph N/A   Clear
2:15 AM -13.0 °F -37.5 °F -23.8 °F 59% 30.17 in 10.0 mi WSW 17.3 mph 24.2 mph N/A   Clear
2:35 AM -13.0 °F -36.8 °F -23.8 °F 59% 30.18 in 10.0 mi WSW 16.1 mph 24.2 mph N/A   Clear
2:55 AM -13.0 °F -39.4 °F -22.0 °F 64% 30.18 in 9.0 mi WSW 20.7 mph - N/A   Clear
3:15 AM -13.0 °F -38.2 °F -22.0 °F 64% 30.18 in 10.0 mi WSW 18.4 mph 25.3 mph N/A   Clear
3:35 AM -13.0 °F -36.8 °F -22.0 °F 64% 30.18 in 10.0 mi WSW 16.1 mph - N/A   Clear
3:55 AM -13.0 °F -37.5 °F -22.0 °F 64% 30.18 in 10.0 mi WSW 17.3 mph 23.0 mph N/A   Clear
4:15 AM -13.0 °F -37.5 °F -22.0 °F 64% 30.18 in 10.0 mi WSW 17.3 mph - N/A   Clear
4:35 AM -13.0 °F -37.5 °F -22.0 °F 64% 30.18 in 10.0 mi WSW 17.3 mph 24.2 mph N/A   Clear
4:55 AM -13.0 °F -38.2 °F -22.0 °F 64% 30.18 in 10.0 mi WSW 18.4 mph - N/A   Clear
5:15 AM -13.0 °F -36.8 °F -22.0 °F 64% 30.18 in 10.0 mi WSW 16.1 mph 23.0 mph N/A   Clear
5:35 AM -13.0 °F -38.2 °F -22.0 °F 64% 30.19 in 9.0 mi WSW 18.4 mph - N/A   Clear
5:55 AM -13.0 °F -38.2 °F -22.0 °F 64% 30.19 in 9.0 mi WSW 18.4 mph 25.3 mph N/A   Clear
6:15 AM -13.0 °F -37.5 °F -20.2 °F 70% 30.19 in 10.0 mi WSW 17.3 mph 25.3 mph N/A   Clear
6:35 AM -13.0 °F -37.5 °F -20.2 °F 70% 30.20 in 10.0 mi WSW 17.3 mph 24.2 mph N/A   Clear
6:55 AM -11.2 °F -34.4 °F -20.2 °F 64% 30.20 in 10.0 mi WSW 16.1 mph 25.3 mph N/A   Clear
7:15 AM -11.2 °F -35.2 °F -20.2 °F 64% 30.21 in 10.0 mi SW 17.3 mph - N/A   Clear
7:35 AM -13.0 °F -37.5 °F -20.2 °F 70% 30.21 in 10.0 mi SW 17.3 mph - N/A   Clear
7:55 AM -13.0 °F -36.0 °F -20.2 °F 70% 30.22 in 10.0 mi SW 15.0 mph 24.2 mph N/A   Clear
8:15 AM -13.0 °F -38.2 °F -20.2 °F 70% 30.22 in 10.0 mi SW 18.4 mph - N/A   Clear
8:35 AM -11.2 °F -34.4 °F -20.2 °F 64% 30.23 in 10.0 mi SW 16.1 mph 23.0 mph N/A   Clear
8:55 AM -11.2 °F -35.2 °F -20.2 °F 64% 30.24 in 9.0 mi SW 17.3 mph 24.2 mph N/A   Clear
9:15 AM -11.2 °F -33.7 °F -20.2 °F 64% 30.24 in 9.0 mi SW 15.0 mph 23.0 mph N/A   Clear
9:35 AM -11.2 °F -35.8 °F -20.2 °F 64% 30.25 in 9.0 mi WSW 18.4 mph 28.8 mph N/A   Clear
9:55 AM -9.4 °F -32.8 °F -18.4 °F 65% 30.26 in 9.0 mi WSW 17.3 mph 26.5 mph N/A   Clear
10:15 AM -9.4 °F -34.1 °F -18.4 °F 65% 30.28 in 8.0 mi SW 19.6 mph - N/A   Clear
10:35 AM -9.4 °F -34.1 °F -18.4 °F 65% 30.29 in 7.0 mi WSW 19.6 mph 28.8 mph N/A   Clear
10:55 AM -7.6 °F -31.1 °F -18.4 °F 59% 30.29 in 5.0 mi WSW 18.4 mph 26.5 mph N/A   Haze
11:15 AM -7.6 °F -31.7 °F -16.6 °F 65% 30.29 in 7.0 mi WSW 19.6 mph 26.5 mph N/A   Clear
11:35 AM -7.6 °F -31.1 °F -16.6 °F 65% 30.29 in 8.0 mi WSW 18.4 mph 24.2 mph N/A   Clear
11:55 AM -5.8 °F -28.2 °F -16.6 °F 60% 30.27 in 9.0 mi WSW 17.3 mph 24.2 mph N/A   Clear
12:15 PM -5.8 °F -29.4 °F -16.6 °F 60% 30.26 in 8.0 mi WSW 19.6 mph 26.5 mph N/A   Clear
12:35 PM -5.8 °F -29.9 °F -16.6 °F 60% 30.25 in 8.0 mi SW 20.7 mph - N/A   Clear
12:55 PM -4.0 °F -27.6 °F -14.8 °F 60% 30.26 in 9.0 mi WSW 20.7 mph - N/A   Clear
1:15 PM -4.0 °F -26.4 °F -14.8 °F 60% 30.25 in 9.0 mi WSW 18.4 mph 27.6 mph N/A   Clear
1:35 PM -4.0 °F -27.0 °F -14.8 °F 60% 30.25 in 10.0 mi WSW 19.6 mph - N/A   Clear
1:55 PM -4.0 °F -24.5 °F -14.8 °F 60% 30.25 in 9.0 mi WSW 15.0 mph 21.9 mph N/A   Clear
2:15 PM -4.0 °F -25.2 °F -14.8 °F 60% 30.25 in 10.0 mi WSW 16.1 mph 24.2 mph N/A   Clear
2:35 PM -2.2 °F -23.5 °F -13.0 °F 60% 30.25 in 10.0 mi WSW 17.3 mph - N/A   Clear
2:55 PM -2.2 °F -23.5 °F -13.0 °F 60% 30.25 in 10.0 mi WSW 17.3 mph 24.2 mph N/A   Clear
3:15 PM -2.2 °F -23.5 °F -13.0 °F 60% 30.25 in 10.0 mi WSW 17.3 mph - N/A   Clear
3:35 PM -2.2 °F -21.5 °F -13.0 °F 60% 30.26 in 10.0 mi SW 13.8 mph 20.7 mph N/A   Clear
3:55 PM -2.2 °F -24.7 °F -11.2 °F 66% 30.27 in 10.0 mi WSW 19.6 mph 25.3 mph N/A   Clear
4:15 PM -0.4 °F -20.5 °F -11.2 °F 60% 30.27 in 10.0 mi WSW 16.1 mph 23.0 mph N/A   Clear
4:35 PM -0.4 °F -18.4 °F -11.2 °F 60% 30.26 in 10.0 mi SW 12.7 mph 21.9 mph N/A   Clear
4:55 PM -0.4 °F -17.6 °F -11.2 °F 60% 30.26 in 10.0 mi WSW 11.5 mph - N/A   Clear
5:15 PM -0.4 °F -19.2 °F -11.2 °F 60% 30.26 in 10.0 mi SW 13.8 mph - N/A   Clear
5:35 PM -2.2 °F -22.2 °F -11.2 °F 66% 30.26 in 10.0 mi WSW 15.0 mph 21.9 mph N/A   Clear
5:55 PM -2.2 °F -19.9 °F -11.2 °F 66% 30.26 in 10.0 mi SW 11.5 mph - N/A   Clear
6:15 PM -2.2 °F -18.0 °F -11.2 °F 66% 30.27 in 10.0 mi SW 9.2 mph - N/A   Clear
6:35 PM -2.2 °F -18.0 °F -11.2 °F 66% 30.28 in 10.0 mi SW 9.2 mph 16.1 mph N/A   Clear
6:55 PM -2.2 °F -18.9 °F -11.2 °F 66% 30.28 in 10.0 mi WSW 10.4 mph - N/A   Clear
7:15 PM -2.2 °F -18.0 °F -11.2 °F 66% 30.28 in 10.0 mi WSW 9.2 mph - N/A   Clear
7:35 PM -2.2 °F -18.9 °F -11.2 °F 66% 30.29 in 10.0 mi WSW 10.4 mph - N/A   Clear
7:55 PM -2.2 °F -18.0 °F -11.2 °F 66% 30.29 in 10.0 mi SW 9.2 mph - N/A   Clear
8:15 PM -2.2 °F -18.0 °F -9.4 °F 71% 30.30 in 10.0 mi SW 9.2 mph - N/A   Clear
8:35 PM -2.2 °F -14.2 °F -9.4 °F 71% 30.30 in 10.0 mi SW 5.8 mph - N/A   Clear
8:55 PM -2.2 °F -12.5 °F -11.2 °F 66% 30.31 in 10.0 mi SW 4.6 mph - N/A   Clear
9:15 PM -2.2 °F -14.2 °F -11.2 °F 66% 30.31 in 10.0 mi SW 5.8 mph - N/A   Clear
9:35 PM -2.2 °F -15.6 °F -9.4 °F 71% 30.31 in 10.0 mi SW 6.9 mph - N/A   Clear
9:55 PM -2.2 °F -15.6 °F -9.4 °F 71% 30.31 in 10.0 mi SW 6.9 mph - N/A   Clear
10:15 PM -2.2 °F -15.6 °F -9.4 °F 71% 30.32 in 10.0 mi SW 6.9 mph - N/A   Clear
10:35 PM -0.4 °F -14.7 °F -7.6 °F 72% 30.31 in 10.0 mi SW 8.1 mph - N/A   Clear
10:55 PM -0.4 °F -13.4 °F -7.6 °F 72% 30.31 in 10.0 mi SW 6.9 mph - N/A   Clear
11:15 PM 1.4 °F -11.3 °F -5.8 °F 72% 30.32 in 10.0 mi SW 6.9 mph - N/A   Clear
11:35 PM 1.4 °F -11.3 °F -5.8 °F 72% 30.32 in 10.0 mi SW 6.9 mph - N/A   Clear
11:55 PM -0.4 °F -13.4 °F -5.8 °F 78% 30.31 in 10.0 mi SW 6.9 mph - N/A   Clear